sensor_id;sensor_type;location;lat;lon;timestamp;P1;durP1;ratioP1;P2;durP2;ratioP2
72603;SDS011;60645;56.968;24.196;2023-03-21T06:25:21;0.45;;;0.40;;
72603;SDS011;60645;56.968;24.196;2023-03-21T08:40:21;1.63;;;0.73;;
72603;SDS011;60645;56.968;24.196;2023-03-21T08:45:15;3.08;;;1.20;;
72603;SDS011;60645;56.968;24.196;2023-03-21T08:47:42;4.07;;;1.92;;
72603;SDS011;60645;56.968;24.196;2023-03-21T08:50:11;4.57;;;2.50;;
72603;SDS011;60645;56.968;24.196;2023-03-21T09:22:48;3.70;;;1.00;;
72603;SDS011;60645;56.968;24.196;2023-03-21T09:27:45;3.90;;;1.30;;
72603;SDS011;60645;56.968;24.196;2023-03-21T09:30:13;4.40;;;1.90;;
72603;SDS011;60645;56.968;24.196;2023-03-21T09:37:41;5.15;;;2.17;;
72603;SDS011;60645;56.968;24.196;2023-03-21T09:40:13;6.25;;;3.65;;
72603;SDS011;60645;56.968;24.196;2023-03-21T09:43:22;7.93;;;3.60;;
72603;SDS011;60645;56.968;24.196;2023-03-21T09:58:54;5.43;;;1.92;;
72603;SDS011;60645;56.968;24.196;2023-03-21T10:01:25;4.95;;;1.88;;
72603;SDS011;60645;56.968;24.196;2023-03-21T10:03:55;4.05;;;2.50;;
72603;SDS011;60645;56.968;24.196;2023-03-21T10:06:26;4.77;;;3.13;;
72603;SDS011;60645;56.968;24.196;2023-03-21T10:14:38;4.03;;;3.17;;
72603;SDS011;60645;56.968;24.196;2023-03-21T10:20:09;7.10;;;3.95;;
72603;SDS011;60645;56.968;24.196;2023-03-21T10:22:43;8.57;;;6.80;;
72603;SDS011;60645;56.968;24.196;2023-03-21T10:25:14;3.90;;;2.75;;
72603;SDS011;60645;56.968;24.196;2023-03-21T17:35:17;8.52;;;4.65;;
72603;SDS011;60645;56.968;24.196;2023-03-21T17:37:45;10.90;;;5.35;;
72603;SDS011;60645;56.968;24.196;2023-03-21T17:52:43;6.57;;;2.65;;
72603;SDS011;60645;56.968;24.196;2023-03-21T22:41:01;4.53;;;1.75;;
72603;SDS011;60645;56.968;24.196;2023-03-21T22:43:29;5.38;;;2.72;;
72603;SDS011;60645;56.968;24.196;2023-03-21T22:46:01;5.50;;;2.97;;
72603;SDS011;60645;56.968;24.196;2023-03-21T22:48:29;4.85;;;2.80;;
72603;SDS011;60645;56.968;24.196;2023-03-21T22:50:56;4.32;;;2.75;;
72603;SDS011;60645;56.968;24.196;2023-03-21T22:53:24;3.75;;;2.03;;
72603;SDS011;60645;56.968;24.196;2023-03-21T22:55:51;3.63;;;1.92;;
72603;SDS011;60645;56.968;24.196;2023-03-21T22:58:18;3.70;;;1.65;;
72603;SDS011;60645;56.968;24.196;2023-03-21T23:00:46;2.90;;;1.52;;
72603;SDS011;60645;56.968;24.196;2023-03-21T23:03:13;2.67;;;1.40;;
72603;SDS011;60645;56.968;24.196;2023-03-21T23:05:42;3.10;;;1.70;;
72603;SDS011;60645;56.968;24.196;2023-03-21T23:08:10;1.77;;;1.20;;
72603;SDS011;60645;56.968;24.196;2023-03-21T23:10:38;2.47;;;1.45;;
72603;SDS011;60645;56.968;24.196;2023-03-21T23:13:09;3.47;;;1.60;;
72603;SDS011;60645;56.968;24.196;2023-03-21T23:15:36;2.45;;;0.93;;
72603;SDS011;60645;56.968;24.196;2023-03-21T23:18:07;2.33;;;1.05;;
72603;SDS011;60645;56.968;24.196;2023-03-21T23:20:34;1.73;;;1.20;;
72603;SDS011;60645;56.968;24.196;2023-03-21T23:23:01;2.40;;;1.03;;
72603;SDS011;60645;56.968;24.196;2023-03-21T23:25:28;2.05;;;0.93;;
72603;SDS011;60645;56.968;24.196;2023-03-21T23:27:55;2.60;;;0.90;;
72603;SDS011;60645;56.968;24.196;2023-03-21T23:30:22;2.95;;;1.05;;
72603;SDS011;60645;56.968;24.196;2023-03-21T23:32:49;2.47;;;1.23;;
72603;SDS011;60645;56.968;24.196;2023-03-21T23:35:17;1.80;;;0.80;;
72603;SDS011;60645;56.968;24.196;2023-03-21T23:37:44;2.33;;;0.93;;
72603;SDS011;60645;56.968;24.196;2023-03-21T23:40:18;2.03;;;1.20;;
72603;SDS011;60645;56.968;24.196;2023-03-21T23:42:46;1.48;;;1.05;;
72603;SDS011;60645;56.968;24.196;2023-03-21T23:45:13;1.75;;;1.10;;
72603;SDS011;60645;56.968;24.196;2023-03-21T23:47:40;2.60;;;1.20;;
72603;SDS011;60645;56.968;24.196;2023-03-21T23:50:08;1.80;;;0.93;;
72603;SDS011;60645;56.968;24.196;2023-03-21T23:52:35;1.33;;;0.73;;
72603;SDS011;60645;56.968;24.196;2023-03-21T23:55:03;1.52;;;1.00;;
72603;SDS011;60645;56.968;24.196;2023-03-21T23:57:31;2.58;;;1.20;;
72603;SDS011;60645;56.968;24.196;2023-03-21T23:59:58;1.98;;;0.82;;
